Time;durP1;ratioP1;P1;durP2;ratioP2;P2;SDS_P1;SDS_P2;PMS_P1;PMS_P2;Temp;Humidity;BMP_temperature;BMP_pressure;BME280_temperature;BME280_humidity;BME280_pressure;Samples;Min_cycle;Max_cycle;Signal;HPM_P1;HPM_P2
2023/03/21 00:01:44;;;;;;;4.05;2.15;;;;;;;11.24;57.33;100911.22;4157961;28;20079;-66
2023/03/21 00:03:48;;;;;;;4.15;1.85;;;;;;;11.24;57.97;100911.22;4160122;28;20075;-66
2023/03/21 00:05:52;;;;;;;3.92;1.90;;;;;;;11.23;56.88;100907.75;4160071;28;20131;-66
2023/03/21 00:07:55;;;;;;;8.77;2.90;;;;;;;11.25;57.14;100907.78;4158810;28;20041;-66
2023/03/21 00:09:59;;;;;;;5.53;2.25;;;;;;;11.23;57.00;100906.84;4153810;28;20033;-66
2023/03/21 00:12:19;;;;;;;3.28;1.90;;;;;;;11.17;58.01;100903.28;4155133;28;20041;-65
2023/03/21 00:14:24;;;;;;;8.70;2.45;;;;;;;11.17;58.47;100902.44;4156652;28;20129;-65
2023/03/21 00:16:29;;;;;;;5.20;1.73;;;;;;;11.17;57.89;100900.69;4157641;28;20382;-66
2023/03/21 00:18:45;;;;;;;35.08;18.35;;;;;;;11.16;57.17;100898.94;4161184;28;20484;-66
2023/03/21 00:20:57;;;;;;;46.30;26.38;;;;;;;11.20;56.54;100896.38;4160481;28;20119;-66
2023/03/21 00:23:20;;;;;;;22.55;11.65;;;;;;;11.16;56.91;100888.53;4151467;28;20515;-66
2023/03/21 00:25:24;;;;;;;17.38;7.13;;;;;;;11.18;57.21;100892.03;4160888;28;20048;-66
2023/03/21 00:27:28;;;;;;;10.65;4.90;;;;;;;11.19;57.11;100887.72;4159943;28;20073;-66
2023/03/21 00:29:50;;;;;;;38.47;21.88;;;;;;;11.17;56.79;100886.81;4152555;28;20033;-66
2023/03/21 00:31:53;;;;;;;39.13;22.27;;;;;;;11.17;56.34;100887.69;4156756;28;20436;-66
2023/03/21 00:33:59;;;;;;;10.57;6.18;;;;;;;11.16;56.68;100888.53;4154002;28;20037;-66
2023/03/21 00:36:02;;;;;;;8.23;3.88;;;;;;;11.16;56.46;100879.84;4156382;28;20410;-66
2023/03/21 00:38:08;;;;;;;6.13;3.17;;;;;;;11.17;56.91;100879.88;4152932;28;20456;-66
2023/03/21 00:40:12;;;;;;;6.85;2.88;;;;;;;11.18;56.19;100879.03;4154057;28;20038;-66
2023/03/21 00:42:30;;;;;;;4.63;2.50;;;;;;;11.15;56.23;100872.88;4153647;28;20072;-67
2023/03/21 00:44:35;;;;;;;6.45;2.10;;;;;;;11.13;56.66;100874.59;4159967;28;20045;-66
2023/03/21 00:46:38;;;;;;;4.28;2.05;;;;;;;11.11;57.07;100871.97;4158768;28;20068;-66
2023/03/21 00:48:53;;;;;;;6.95;2.70;;;;;;;11.08;57.56;100871.91;4157111;28;20056;-66
2023/03/21 00:50:58;;;;;;;7.60;3.40;;;;;;;11.09;56.38;100871.03;4159401;28;20183;-66
2023/03/21 00:53:01;;;;;;;9.35;3.88;;;;;;;11.08;57.53;100866.69;4153235;28;20066;-66
2023/03/21 00:55:04;;;;;;;10.27;3.33;;;;;;;11.08;57.17;100866.69;4158848;28;20064;-66
2023/03/21 00:57:07;;;;;;;7.82;2.85;;;;;;;11.06;56.80;100863.19;4142670;28;20042;-66
2023/03/21 00:59:13;;;;;;;4.82;2.42;;;;;;;11.06;57.35;100865.78;4161232;28;20374;-66
2023/03/21 01:01:18;;;;;;;6.55;2.58;;;;;;;11.06;57.50;100868.38;4163039;28;20042;-66
2023/03/21 01:03:21;;;;;;;4.63;2.40;;;;;;;11.05;56.53;100869.22;4164698;28;20037;-65
2023/03/21 01:07:46;;;;;;;9.13;3.22;;;;;;;11.03;56.66;100865.72;4159597;28;20037;-65
2023/03/21 01:09:49;;;;;;;4.05;2.50;;;;;;;11.04;57.04;100859.69;4160085;28;20400;-66
2023/03/21 01:11:53;;;;;;;5.28;2.25;;;;;;;11.03;56.82;100857.91;4163091;28;20041;-66
2023/03/21 01:13:57;;;;;;;5.78;2.90;;;;;;;11.03;56.72;100857.91;4162338;28;20088;-66
2023/03/21 01:16:22;;;;;;;6.43;2.70;;;;;;;11.00;57.29;100852.66;4159543;28;20046;-66
2023/03/21 01:18:26;;;;;;;5.82;2.33;;;;;;;11.00;56.74;100855.25;4158127;28;20045;-66
2023/03/21 01:20:29;;;;;;;;;;;;;;;10.94;57.08;100855.16;4161998;28;20673;-66
2023/03/21 01:22:32;;;;;;;6.05;2.90;;;;;;;10.94;57.36;100853.41;4163713;28;19921;-66
2023/03/21 01:24:35;;;;;;;4.13;2.60;;;;;;;10.98;57.29;100852.63;4176291;28;20566;-66
2023/03/21 01:26:48;;;;;;;6.72;3.33;;;;;;;11.03;57.70;100842.31;4161768;28;20040;-66
2023/03/21 01:28:51;;;;;;;7.60;3.05;;;;;;;11.03;57.21;100844.91;4163449;28;20398;-66
2023/03/21 01:30:55;;;;;;;7.43;2.97;;;;;;;11.04;57.76;100846.69;4161486;28;20528;-66
2023/03/21 01:32:59;;;;;;;4.38;2.58;;;;;;;11.05;57.59;100843.19;4160458;28;20072;-66
2023/03/21 01:35:02;;;;;;;5.43;2.65;;;;;;;11.05;57.60;100840.59;4161399;28;20136;-66
2023/03/21 01:37:05;;;;;;;6.97;3.00;;;;;;;11.08;57.21;100845.00;4163256;28;20037;-66
2023/03/21 01:39:16;;;;;;;5.80;2.47;;;;;;;11.04;57.64;100837.97;4161353;28;20647;-66
2023/03/21 01:41:24;;;;;;;5.65;2.13;;;;;;;11.00;57.87;100829.25;4162033;28;20132;-66
2023/03/21 01:43:39;;;;;;;5.82;2.13;;;;;;;11.00;57.76;100831.84;4159855;28;20043;-66
2023/03/21 01:46:19;;;;;;;4.05;2.38;;;;;;;11.02;58.02;100829.28;4162163;28;20516;-66
2023/03/21 01:48:54;;;;;;;6.22;2.65;;;;;;;10.93;57.33;100830.84;4158900;28;20073;-66
2023/03/21 01:50:57;;;;;;;8.52;3.47;;;;;;;10.95;58.03;100836.06;4162965;28;20148;-66
2023/03/21 01:53:28;;;;;;;8.05;3.13;;;;;;;10.99;56.96;100836.19;4156440;28;20501;-66
2023/03/21 01:55:32;;;;;;;8.43;2.88;;;;;;;10.96;57.44;100830.91;4161825;28;20120;-66
2023/03/21 01:57:45;;;;;;;6.15;2.85;;;;;;;10.92;56.99;100828.22;4162896;28;20061;-66
2023/03/21 02:00:11;;;;;;;5.43;2.47;;;;;;;10.90;57.97;100832.53;4157046;28;20068;-66
2023/03/21 02:02:31;;;;;;;5.30;2.80;;;;;;;10.92;57.57;100830.81;4145655;28;20042;-66
2023/03/21 02:04:54;;;;;;;9.48;3.90;;;;;;;10.93;58.03;100824.78;4159242;28;20132;-66
2023/03/21 02:07:04;;;;;;;11.95;3.25;;;;;;;10.94;58.31;100816.13;4162149;28;20037;-66
2023/03/21 02:09:20;;;;;;;7.30;3.08;;;;;;;10.88;58.11;100816.91;4156795;28;20500;-66
2023/03/21 02:11:25;;;;;;;4.53;2.58;;;;;;;10.89;57.66;100813.41;4161046;28;20041;-66
2023/03/21 02:13:28;;;;;;;6.88;2.80;;;;;;;10.88;58.34;100811.69;4161490;28;20409;-66
2023/03/21 02:15:31;;;;;;;10.02;3.65;;;;;;;10.90;57.97;100807.38;4161757;28;20045;-66
2023/03/21 02:17:52;;;;;;;5.53;3.08;;;;;;;10.88;58.19;100803.00;4160307;28;20471;-66
2023/03/21 02:20:41;;;;;;;6.53;2.75;;;;;;;10.88;58.28;100800.41;4157007;28;20096;-66
2023/03/21 02:23:24;;;;;;;7.97;3.13;;;;;;;10.90;58.42;100803.91;4160135;28;20042;-66
2023/03/21 02:26:05;;;;;;;7.07;2.70;;;;;;;10.90;58.19;100806.50;4145650;28;20103;-66
2023/03/21 02:28:14;;;;;;;7.82;3.00;;;;;;;10.88;58.17;100797.78;4174061;28;20543;-66
2023/03/21 02:30:37;;;;;;;8.98;2.95;;;;;;;10.89;57.50;100795.22;4160474;28;20120;-66
2023/03/21 02:33:10;;;;;;;7.28;2.90;;;;;;;10.91;58.24;100790.06;4162133;28;20432;-66
2023/03/21 02:35:29;;;;;;;4.50;2.55;;;;;;;10.88;57.83;100783.09;4160798;23;20088;-63
2023/03/21 02:37:38;;;;;;;6.38;2.90;;;;;;;10.87;58.05;100791.72;4144595;28;20450;-63
2023/03/21 02:39:53;;;;;;;7.03;3.10;;;;;;;10.86;57.91;100791.69;4161054;28;20041;-63
2023/03/21 02:42:06;;;;;;;6.47;3.15;;;;;;;10.85;58.68;100793.44;4152928;28;20036;-63
2023/03/21 02:44:19;;;;;;;6.13;2.92;;;;;;;10.88;58.74;100797.78;4141662;28;20026;-63
2023/03/21 02:46:28;;;;;;;5.93;2.83;;;;;;;10.87;58.13;100788.25;4154476;28;20556;-64
2023/03/21 02:48:52;;;;;;;9.23;3.75;;;;;;;10.86;57.88;100791.69;4131654;28;20437;-64
2023/03/21 02:50:58;;;;;;;8.13;3.08;;;;;;;10.86;58.09;100791.69;4151276;28;20069;-63
2023/03/21 02:53:06;;;;;;;7.47;3.40;;;;;;;10.85;57.92;100795.13;4157868;28;21157;-64
2023/03/21 02:55:14;;;;;;;8.38;2.90;;;;;;;10.85;57.77;100795.13;4119686;28;20511;-64
2023/03/21 02:57:25;;;;;;;8.30;2.90;;;;;;;10.84;58.42;100794.28;4129789;28;20046;-64
2023/03/21 02:59:42;;;;;;;7.65;2.95;;;;;;;10.82;57.93;100790.78;4132346;28;20405;-64
2023/03/21 03:02:02;;;;;;;6.65;2.85;;;;;;;10.82;58.24;100790.78;4116455;28;20514;-64
2023/03/21 03:04:16;;;;;;;8.80;3.30;;;;;;;10.82;58.44;100790.78;4143327;28;20041;-64
2023/03/21 03:06:23;;;;;;;9.32;2.67;;;;;;;10.80;58.29;100785.53;4137259;28;20395;-64
2023/03/21 03:08:41;;;;;;;5.18;3.08;;;;;;;10.80;58.42;100787.25;4130025;28;20046;-64
2023/03/21 03:11:08;;;;;;;;;;;;;;;10.69;58.86;100775.78;4128009;28;20462;-64
2023/03/21 03:13:26;;;;;;;5.43;2.78;;;;;;;10.68;58.93;100777.50;4144369;28;19960;-64
2023/03/21 03:15:44;;;;;;;8.52;3.00;;;;;;;10.64;59.39;100781.78;4140216;28;20046;-64
2023/03/21 03:17:52;;;;;;;7.35;2.90;;;;;;;10.62;59.99;100773.06;4136936;28;20049;-64
2023/03/21 03:20:13;;;;;;;7.90;2.67;;;;;;;10.63;59.88;100776.53;4137074;28;20576;-64
2023/03/21 03:22:26;;;;;;;6.25;3.13;;;;;;;10.62;60.30;100782.59;4140055;28;20084;-64
2023/03/21 03:24:33;;;;;;;6.50;2.53;;;;;;;10.60;61.49;100781.66;4149614;28;20045;-64
2023/03/21 03:26:41;;;;;;;7.22;3.15;;;;;;;10.62;60.93;100780.00;4121296;28;20053;-63
2023/03/21 03:28:48;;;;;;;4.22;2.53;;;;;;;10.61;61.81;100781.69;4130325;28;20043;-64
2023/03/21 03:30:54;;;;;;;4.90;2.47;;;;;;;10.60;62.16;100781.66;4150599;28;20132;-63
2023/03/21 03:33:22;;;;;;;5.53;3.15;;;;;;;10.57;62.59;100782.50;4131972;28;20061;-63
2023/03/21 03:35:26;;;;;;;6.53;3.28;;;;;;;10.57;62.95;100774.72;4155800;28;20042;-63
2023/03/21 03:37:33;;;;;;;12.93;3.67;;;;;;;10.56;61.89;100778.16;4135618;28;20137;-64
2023/03/21 03:39:43;;;;;;;12.02;3.97;;;;;;;10.56;62.14;100782.47;4131608;28;20034;-64
2023/03/21 03:41:53;;;;;;;7.80;3.13;;;;;;;10.55;61.53;100780.72;4130173;28;20044;-63
2023/03/21 03:44:18;;;;;;;8.80;3.53;;;;;;;10.50;62.02;100778.03;4109690;28;20061;-64
2023/03/21 03:46:35;;;;;;;8.10;4.22;;;;;;;10.49;61.91;100778.88;4139173;28;20061;-63
2023/03/21 03:48:45;;;;;;;9.27;2.92;;;;;;;10.46;61.23;100773.63;4138057;28;20034;-63
2023/03/21 03:50:54;;;;;;;9.73;3.05;;;;;;;10.45;61.29;100782.25;4141918;28;20462;-63
2023/03/21 03:53:12;;;;;;;6.60;2.95;;;;;;;10.43;60.87;100774.44;4130105;28;20042;-63
2023/03/21 03:55:25;;;;;;;7.05;2.70;;;;;;;10.44;61.81;100770.09;4144435;28;20042;-63
2023/03/21 03:57:30;;;;;;;7.60;3.08;;;;;;;10.42;60.88;100780.47;4136304;28;20093;-63
2023/03/21 03:59:35;;;;;;;5.63;2.80;;;;;;;10.42;60.94;100775.25;4132587;28;20038;-63
2023/03/21 04:01:54;;;;;;;5.03;2.83;;;;;;;10.42;60.79;100777.00;4144118;28;20033;-63
2023/03/21 04:03:59;;;;;;;7.05;3.55;;;;;;;10.40;60.93;100774.38;4131629;28;20038;-65
2023/03/21 04:06:15;;;;;;;9.88;3.42;;;;;;;10.40;61.38;100774.38;4132510;28;20034;-63
2023/03/21 04:08:18;;;;;;;6.57;2.58;;;;;;;10.39;60.69;100777.81;4132737;28;20050;-63
2023/03/21 04:10:27;;;;;;;7.68;3.47;;;;;;;10.40;61.43;100776.97;4131504;28;20222;-63
2023/03/21 04:12:31;;;;;;;6.40;2.75;;;;;;;10.41;60.37;100770.03;4154182;28;20069;-63
2023/03/21 04:14:54;;;;;;;4.97;2.65;;;;;;;10.40;61.07;100765.72;4135801;28;20038;-63
2023/03/21 04:17:10;;;;;;;8.55;2.80;;;;;;;10.39;61.09;100769.16;4125051;28;20046;-63
2023/03/21 04:19:14;;;;;;;5.53;2.65;;;;;;;10.39;60.56;100764.81;4123104;28;20045;-63
2023/03/21 04:21:18;;;;;;;8.27;3.03;;;;;;;10.40;60.59;100765.72;4125811;28;20050;-63
2023/03/21 04:23:22;;;;;;;7.93;3.97;;;;;;;10.39;61.28;100764.81;4134423;28;20038;-63
2023/03/21 04:25:27;;;;;;;6.93;3.17;;;;;;;10.40;61.36;100770.91;4130537;28;20045;-63
2023/03/21 04:27:38;;;;;;;8.82;3.60;;;;;;;10.40;61.32;100766.56;4135649;28;20049;-63
2023/03/21 04:30:06;;;;;;;5.20;2.65;;;;;;;10.37;61.16;100761.31;4115787;28;20043;-64
2023/03/21 04:32:25;;;;;;;7.15;3.25;;;;;;;10.39;61.21;100766.53;4142590;28;20046;-64
2023/03/21 04:34:39;;;;;;;6.25;3.10;;;;;;;10.40;61.02;100770.91;4143740;28;20450;-64
2023/03/21 04:36:44;;;;;;;5.20;2.80;;;;;;;10.40;61.68;100770.91;4130467;28;20038;-64
2023/03/21 04:38:47;;;;;;;5.28;2.90;;;;;;;10.36;60.82;100764.75;4134573;28;20034;-64
2023/03/21 04:40:51;;;;;;;7.60;2.60;;;;;;;10.38;61.11;100772.56;4117966;28;20057;-64
2023/03/21 04:43:00;;;;;;;6.10;2.75;;;;;;;10.38;61.57;100769.97;4122782;28;20101;-64
2023/03/21 04:45:04;;;;;;;5.97;3.60;;;;;;;10.35;61.38;100763.00;4147346;28;20117;-64
2023/03/21 04:47:07;;;;;;;9.23;3.07;;;;;;;10.32;62.21;100773.28;4154112;28;20045;-64
2023/03/21 04:49:11;;;;;;;7.13;3.53;;;;;;;10.33;62.75;100767.25;4129320;28;20368;-64
2023/03/21 04:51:13;;;;;;;8.95;3.15;;;;;;;10.33;62.45;100761.19;4133851;28;20101;-64
2023/03/21 04:53:16;;;;;;;5.75;2.85;;;;;;;10.33;62.80;100761.19;4152430;28;20029;-64
2023/03/21 04:55:20;;;;;;;9.45;3.22;;;;;;;10.31;62.83;100766.38;4155833;28;20504;-64
2023/03/21 04:57:23;;;;;;;6.47;2.38;;;;;;;10.32;63.55;100762.91;4143600;28;20136;-64
2023/03/21 04:59:27;;;;;;;6.82;3.35;;;;;;;10.30;63.90;100765.47;4136929;28;20054;-64
2023/03/21 05:01:30;;;;;;;6.25;2.67;;;;;;;10.28;64.00;100767.16;4128781;28;20403;-64
2023/03/21 05:03:38;;;;;;;5.43;2.70;;;;;;;10.28;63.92;100766.31;4126197;28;20034;-64
2023/03/21 05:05:41;;;;;;;5.40;2.40;;;;;;;10.22;63.61;100766.16;4106675;28;20041;-64
2023/03/21 05:07:44;;;;;;;6.13;3.60;;;;;;;10.22;64.26;100756.66;4129115;28;20034;-64
2023/03/21 05:09:47;;;;;;;7.10;3.10;;;;;;;10.21;64.00;100754.03;4129967;28;20034;-64
2023/03/21 05:11:52;;;;;;;4.75;2.67;;;;;;;10.16;63.47;100751.31;4131156;28;20072;-64
2023/03/21 05:13:55;;;;;;;5.75;2.90;;;;;;;10.13;63.48;100746.97;4144115;28;20444;-64
2023/03/21 05:15:59;;;;;;;6.78;3.08;;;;;;;10.15;63.40;100749.59;4130868;28;20038;-64
2023/03/21 05:18:09;;;;;;;6.82;3.17;;;;;;;10.16;63.99;100750.44;4141776;28;20047;-64
2023/03/21 05:20:20;;;;;;;5.47;2.88;;;;;;;10.14;63.79;100759.09;4132092;28;20125;-64
2023/03/21 05:22:25;;;;;;;9.45;3.10;;;;;;;10.14;63.34;100753.03;4116248;28;20129;-64
2023/03/21 05:24:28;;;;;;;4.70;2.55;;;;;;;10.11;63.47;100747.75;4132799;28;20130;-64
2023/03/21 05:26:31;;;;;;;6.05;2.75;;;;;;;10.06;63.33;100747.69;4113322;28;20054;-64
2023/03/21 05:28:47;;;;;;;8.95;3.33;;;;;;;10.03;63.79;100742.41;4126597;28;20084;-63
2023/03/21 05:30:51;;;;;;;8.93;3.10;;;;;;;10.02;63.52;100740.66;4139918;28;20053;-64
2023/03/21 05:32:55;;;;;;;7.45;3.33;;;;;;;10.03;63.90;100741.53;4136411;28;20508;-64
2023/03/21 05:34:58;;;;;;;;;;;;;;;9.94;63.85;100742.19;4133856;28;20030;-65
2023/03/21 05:37:02;;;;;;;6.80;3.17;;;;;;;9.93;63.90;100746.53;4145700;28;19976;-64
2023/03/21 05:39:17;;;;;;;6.20;2.85;;;;;;;9.96;63.80;100749.19;4144585;28;20048;-65
2023/03/21 05:41:32;;;;;;;5.88;3.50;;;;;;;9.98;64.02;100754.41;4115063;28;20074;-64
2023/03/21 05:43:38;;;;;;;7.90;3.40;;;;;;;9.98;63.93;100746.63;4138889;28;20045;-64
2023/03/21 05:45:42;;;;;;;4.80;2.72;;;;;;;9.98;63.62;100737.97;4134668;28;20089;-67
2023/03/21 05:47:45;;;;;;;6.30;3.47;;;;;;;9.92;63.50;100746.50;4129758;28;20038;-64
2023/03/21 05:49:51;;;;;;;6.23;3.30;;;;;;;9.93;63.70;100746.53;4145436;28;20152;-63
2023/03/21 05:51:54;;;;;;;6.25;3.53;;;;;;;9.93;63.60;100741.34;4140932;28;20136;-64
2023/03/21 05:53:57;;;;;;;10.07;3.50;;;;;;;9.91;63.51;100744.75;4134655;28;20038;-64
2023/03/21 05:56:00;;;;;;;8.90;3.25;;;;;;;9.89;64.17;100749.03;4125388;28;20041;-64
2023/03/21 05:58:38;;;;;;;7.70;3.88;;;;;;;9.92;63.55;100746.50;4132511;28;20046;-63
2023/03/21 06:00:41;;;;;;;7.22;3.67;;;;;;;9.94;63.84;100745.69;4143133;28;20053;-64
2023/03/21 06:03:00;;;;;;;6.75;3.25;;;;;;;10.00;64.04;100754.44;4134877;28;20517;-64
2023/03/21 06:05:24;;;;;;;7.40;3.60;;;;;;;10.03;63.40;100755.41;4145919;28;20041;-64
2023/03/21 06:07:27;;;;;;;6.72;3.50;;;;;;;10.06;63.44;100755.47;4128529;28;20046;-64
2023/03/21 06:09:31;;;;;;;6.57;3.30;;;;;;;10.08;63.16;100755.50;4126215;28;20145;-64
2023/03/21 06:11:38;;;;;;;7.13;3.38;;;;;;;10.12;63.18;100750.41;4147154;28;20546;-64
2023/03/21 06:13:59;;;;;;;8.10;3.67;;;;;;;10.13;62.89;100752.16;4150172;28;20136;-64
2023/03/21 06:16:03;;;;;;;5.55;3.60;;;;;;;10.16;63.64;100755.66;4119400;28;20035;-64
2023/03/21 06:18:08;;;;;;;11.70;5.45;;;;;;;10.21;62.78;100751.44;4132719;28;20042;-64
2023/03/21 06:20:14;;;;;;;6.85;3.35;;;;;;;10.25;63.06;100750.63;4128659;28;20451;-64
2023/03/21 06:22:26;;;;;;;7.82;3.38;;;;;;;10.29;63.22;100757.66;4139354;28;20045;-64
2023/03/21 06:24:29;;;;;;;10.15;3.83;;;;;;;10.38;62.60;100762.19;4135415;28;20498;-63
2023/03/21 06:26:32;;;;;;;9.48;3.63;;;;;;;10.33;62.38;100756.88;4129224;28;20046;-63
2023/03/21 06:28:36;;;;;;;5.55;3.35;;;;;;;10.40;62.60;100757.91;4133675;28;20117;-63
2023/03/21 06:30:39;;;;;;;7.47;3.67;;;;;;;10.40;61.97;100753.56;4129352;28;20038;-64
2023/03/21 06:32:50;;;;;;;8.45;3.60;;;;;;;10.46;62.84;100755.44;4124184;28;20457;-63
2023/03/21 06:34:53;;;;;;;9.10;4.03;;;;;;;10.49;62.74;100760.69;4130006;28;20038;-63
2023/03/21 06:36:56;;;;;;;9.98;4.60;;;;;;;10.54;62.83;100760.75;4135441;28;20129;-63
2023/03/21 06:39:06;;;;;;;6.93;3.65;;;;;;;10.60;61.68;100766.97;4114830;28;20047;-63
2023/03/21 06:41:13;;;;;;;8.73;4.40;;;;;;;10.61;61.56;100766.09;4124695;28;20564;-63
2023/03/21 06:43:20;;;;;;;10.77;3.80;;;;;;;10.57;61.47;100773.81;4149916;28;20039;-63
2023/03/21 06:45:24;;;;;;;6.03;3.60;;;;;;;10.57;61.15;100766.91;4116286;28;20408;-63
2023/03/21 06:47:27;;;;;;;8.63;4.80;;;;;;;10.63;61.39;100774.81;4134900;28;20505;-63
2023/03/21 06:49:31;;;;;;;8.02;3.92;;;;;;;10.66;61.60;100768.81;4126861;28;20432;-63
2023/03/21 06:51:41;;;;;;;6.60;3.47;;;;;;;10.61;61.35;100765.22;4128995;28;20142;-63
2023/03/21 06:53:50;;;;;;;29.38;4.15;;;;;;;10.55;62.97;100766.00;4156442;28;20124;-62
2023/03/21 06:56:02;;;;;;;7.20;4.20;;;;;;;10.68;61.90;100766.25;4129932;28;20118;-62
2023/03/21 06:58:07;;;;;;;8.07;3.83;;;;;;;10.81;61.50;100763.88;4126191;28;20046;-64
2023/03/21 07:00:13;;;;;;;8.13;4.03;;;;;;;10.92;61.85;100760.59;4132343;28;20394;-62
2023/03/21 07:02:20;;;;;;;8.30;3.78;;;;;;;11.02;61.79;100762.50;4132504;28;20042;-62
2023/03/21 07:04:37;;;;;;;8.35;3.92;;;;;;;11.02;61.10;100762.50;4136034;28;20069;-62
2023/03/21 07:06:45;;;;;;;6.10;3.88;;;;;;;11.11;60.51;100757.47;4133226;28;20839;-62
2023/03/21 07:08:48;;;;;;;8.45;3.72;;;;;;;11.15;60.42;100760.97;4130683;28;20042;-62
2023/03/21 07:10:55;;;;;;;8.80;4.20;;;;;;;11.24;59.87;100762.88;4135298;28;20046;-62
2023/03/21 07:13:00;;;;;;;12.15;3.78;;;;;;;11.29;60.29;100762.09;4130331;28;20038;-62
2023/03/21 07:15:11;;;;;;;4.43;3.47;;;;;;;11.37;60.00;100762.22;4130498;28;20124;-62
2023/03/21 07:17:16;;;;;;;;;;;;;;;11.38;59.52;100761.38;4146689;28;20041;-62
2023/03/21 07:19:19;;;;;;;5.18;3.63;;;;;;;11.45;60.22;100762.34;4148888;28;20468;-62
2023/03/21 07:21:21;;;;;;;7.78;3.65;;;;;;;11.53;59.48;100766.81;4131965;28;20042;-62
2023/03/21 07:23:26;;;;;;;5.93;3.58;;;;;;;11.58;59.58;100755.56;4127157;28;20042;-62
2023/03/21 07:25:29;;;;;;;7.93;4.18;;;;;;;11.57;59.11;100754.72;4134301;28;20050;-62
2023/03/21 07:27:32;;;;;;;13.05;4.22;;;;;;;11.61;59.37;100758.22;4109934;28;20074;-62
2023/03/21 07:29:36;;;;;;;10.23;3.90;;;;;;;11.68;58.71;100755.75;4147949;28;20057;-62
2023/03/21 07:31:41;;;;;;;8.20;3.78;;;;;;;11.67;57.98;100758.34;4151418;28;20069;-62
2023/03/21 07:33:45;;;;;;;7.53;3.70;;;;;;;11.67;57.93;100756.59;4140314;28;20073;-62
2023/03/21 07:35:48;;;;;;;8.23;4.40;;;;;;;11.71;58.01;100754.94;4121171;28;20046;-62
2023/03/21 07:37:51;;;;;;;7.20;3.40;;;;;;;11.70;57.77;100748.81;4150041;28;20491;-62
2023/03/21 07:39:55;;;;;;;6.95;3.35;;;;;;;11.73;58.96;100749.75;4134888;28;20041;-63
2023/03/21 07:42:00;;;;;;;7.82;3.83;;;;;;;11.75;58.36;100750.63;4138128;28;20585;-62
2023/03/21 07:44:13;;;;;;;6.43;3.75;;;;;;;11.76;58.33;100747.16;4143656;28;20539;-62
2023/03/21 07:46:17;;;;;;;7.63;3.30;;;;;;;11.80;57.91;100743.75;4143424;28;20406;-62
2023/03/21 07:48:20;;;;;;;6.82;3.28;;;;;;;11.79;57.68;100752.41;4132843;28;20052;-62
2023/03/21 07:50:23;;;;;;;8.30;4.25;;;;;;;11.83;58.02;100755.09;4139682;28;20046;-62
2023/03/21 07:52:26;;;;;;;9.70;4.68;;;;;;;11.93;58.19;100745.72;4149199;28;20037;-62
2023/03/21 07:54:29;;;;;;;6.60;4.05;;;;;;;12.00;58.30;100746.63;4132217;28;20042;-62
2023/03/21 07:56:32;;;;;;;7.93;3.47;;;;;;;12.12;58.03;100754.63;4123626;28;20227;-62
2023/03/21 07:58:35;;;;;;;7.00;3.83;;;;;;;12.14;57.43;100754.66;4145939;28;20402;-63
2023/03/21 08:00:38;;;;;;;16.48;5.70;;;;;;;12.22;56.72;100755.59;4145697;28;20045;-63
2023/03/21 08:02:45;;;;;;;8.82;4.32;;;;;;;12.29;56.87;100753.94;4122647;28;20053;-62
2023/03/21 08:04:51;;;;;;;7.85;3.75;;;;;;;12.42;57.08;100761.06;4141891;28;20473;-62
2023/03/21 08:06:54;;;;;;;8.30;4.20;;;;;;;12.60;56.56;100759.50;4150530;28;20033;-62
2023/03/21 08:08:56;;;;;;;9.35;4.10;;;;;;;12.68;56.42;100752.66;4149991;28;20045;-62
2023/03/21 08:10:59;;;;;;;7.30;3.80;;;;;;;12.80;55.91;100751.91;4150765;28;20063;-62
2023/03/21 08:13:02;;;;;;;9.18;4.97;;;;;;;12.84;54.90;100744.09;4130173;28;20038;-63
2023/03/21 08:15:06;;;;;;;9.57;4.35;;;;;;;12.89;55.98;100750.25;4156519;28;20092;-62
2023/03/21 08:17:10;;;;;;;8.32;3.40;;;;;;;12.95;55.40;100741.59;4139398;28;20069;-62
2023/03/21 08:19:14;;;;;;;10.52;4.07;;;;;;;13.12;54.90;100744.34;4140280;28;20038;-61
2023/03/21 08:21:17;;;;;;;9.00;3.60;;;;;;;13.12;54.94;100741.75;4153388;28;20038;-62
2023/03/21 08:23:21;;;;;;;6.82;4.00;;;;;;;13.13;54.04;100740.00;4146312;28;20452;-62
2023/03/21 08:25:24;;;;;;;7.07;3.72;;;;;;;13.07;54.74;100735.63;4131678;28;20494;-62
2023/03/21 08:27:30;;;;;;;8.70;3.80;;;;;;;13.04;53.72;100740.78;4145017;28;20046;-62
2023/03/21 08:29:33;;;;;;;7.45;4.43;;;;;;;12.99;54.55;100738.16;4158857;28;20050;-62
2023/03/21 08:31:38;;;;;;;6.93;3.38;;;;;;;13.02;54.76;100740.78;4152508;28;20084;-62
2023/03/21 08:33:41;;;;;;;9.75;4.28;;;;;;;13.17;54.00;100741.78;4153425;28;20044;-62
2023/03/21 08:35:46;;;;;;;8.05;4.07;;;;;;;13.11;53.57;100737.38;4158009;22;20049;-65
2023/03/21 08:37:49;;;;;;;5.97;3.05;;;;;;;13.06;53.83;100741.69;4131870;28;20597;-65
2023/03/21 08:39:52;;;;;;;7.45;3.65;;;;;;;12.93;53.92;100738.97;4130532;28;20054;-65
2023/03/21 08:41:55;;;;;;;10.85;3.70;;;;;;;13.03;53.89;100746.91;4145790;28;20046;-66
2023/03/21 08:43:58;;;;;;;7.00;3.53;;;;;;;13.13;54.24;100746.13;4146294;28;20391;-65
2023/03/21 08:46:02;;;;;;;7.97;3.38;;;;;;;13.23;54.06;100754.91;4141766;28;20045;-65
2023/03/21 08:48:06;;;;;;;7.55;3.50;;;;;;;13.21;54.07;100744.41;4136266;28;20030;-65
2023/03/21 08:50:12;;;;;;;8.18;3.42;;;;;;;13.26;54.38;100747.94;4132859;28;20040;-65
2023/03/21 08:52:16;;;;;;;8.80;3.67;;;;;;;13.37;54.20;100749.81;4131149;28;20062;-66
2023/03/21 08:54:21;;;;;;;6.53;3.70;;;;;;;13.47;54.06;100746.38;4154957;28;20049;-65
2023/03/21 08:56:23;;;;;;;9.35;3.55;;;;;;;13.58;53.43;100754.28;4141086;28;20034;-65
2023/03/21 08:58:27;;;;;;;7.40;4.00;;;;;;;13.54;53.45;100742.97;4134043;28;20042;-65
2023/03/21 09:00:29;;;;;;;8.55;3.75;;;;;;;13.52;53.77;100741.19;4136974;28;20042;-66
2023/03/21 09:02:32;;;;;;;9.30;4.63;;;;;;;13.49;53.56;100742.06;4148970;28;20046;-66
2023/03/21 09:04:35;;;;;;;7.00;4.10;;;;;;;13.42;53.77;100745.50;4133148;28;20088;-66
2023/03/21 09:06:39;;;;;;;7.28;4.45;;;;;;;13.44;53.59;100736.78;4129937;28;20042;-66
2023/03/21 09:08:45;;;;;;;8.05;4.25;;;;;;;13.50;53.48;100745.53;4143804;28;20138;-66
2023/03/21 09:10:47;;;;;;;7.07;4.38;;;;;;;13.52;53.31;100747.31;4133759;28;20038;-66
2023/03/21 09:12:52;;;;;;;7.60;4.50;;;;;;;13.52;54.08;100746.41;4131076;28;20043;-66
2023/03/21 09:14:55;;;;;;;8.00;4.78;;;;;;;13.55;53.76;100744.72;4135454;28;20030;-66
2023/03/21 09:16:58;;;;;;;9.25;4.40;;;;;;;13.53;54.59;100742.94;4132465;28;20096;-66
2023/03/21 09:19:03;;;;;;;8.63;4.13;;;;;;;13.57;54.95;100742.13;4125236;28;20045;-66
2023/03/21 09:21:11;;;;;;;7.47;4.65;;;;;;;13.64;54.72;100738.69;4129355;28;20034;-66
2023/03/21 09:23:15;;;;;;;9.55;4.25;;;;;;;13.65;54.37;100742.16;4125563;28;20038;-66
2023/03/21 09:25:20;;;;;;;9.65;3.70;;;;;;;13.69;54.41;100741.31;4133613;28;20042;-66
2023/03/21 09:27:26;;;;;;;10.98;3.90;;;;;;;13.67;54.43;100748.25;4127326;28;20046;-66
2023/03/21 09:29:31;;;;;;;9.25;4.07;;;;;;;13.69;54.11;100741.31;4137301;28;20101;-66
2023/03/21 09:31:34;;;;;;;8.35;3.72;;;;;;;13.79;54.56;100737.88;4139062;28;20049;-66
2023/03/21 09:33:37;;;;;;;7.03;3.70;;;;;;;13.86;53.60;100739.66;4126479;28;20529;-66
2023/03/21 09:35:40;;;;;;;10.52;4.25;;;;;;;13.91;53.81;100735.31;4127641;28;20453;-66
2023/03/21 09:37:43;;;;;;;6.20;3.88;;;;;;;13.99;53.56;100734.47;4128007;28;20042;-66
2023/03/21 09:39:49;;;;;;;4.88;3.13;;;;;;;13.98;53.19;100733.63;4148055;28;20038;-66
2023/03/21 09:42:01;;;;;;;;;;;;;;;14.05;52.95;100734.53;4148365;28;20540;-66
2023/03/21 09:44:15;;;;;;;6.80;3.92;;;;;;;14.17;53.31;100733.72;4152256;28;19936;-66
2023/03/21 09:46:24;;;;;;;6.22;4.10;;;;;;;14.25;52.89;100735.47;4148367;28;20050;-66
2023/03/21 09:48:35;;;;;;;6.65;4.15;;;;;;;14.28;51.36;100732.88;4124756;28;20129;-66
2023/03/21 09:50:46;;;;;;;7.95;3.78;;;;;;;14.26;51.58;100733.72;4141757;28;20066;-66
2023/03/21 09:52:54;;;;;;;6.95;3.35;;;;;;;14.29;52.81;100736.34;4147126;28;20449;-66
2023/03/21 09:54:57;;;;;;;6.03;3.10;;;;;;;14.37;52.14;100736.38;4135494;28;20042;-66
2023/03/21 09:57:07;;;;;;;5.88;3.35;;;;;;;14.36;52.29;100734.66;4126994;28;21609;-66
2023/03/21 09:59:19;;;;;;;5.53;3.15;;;;;;;14.32;51.55;100739.88;4139786;28;20145;-66
2023/03/21 10:01:27;;;;;;;10.57;3.47;;;;;;;14.39;51.55;100734.66;4152145;28;20103;-66